Time;durP1;ratioP1;P1;durP2;ratioP2;P2;SDS_P1;SDS_P2;PMS_P1;PMS_P2;Temp;Humidity;BMP_temperature;BMP_pressure;BME280_temperature;BME280_humidity;BME280_pressure;Samples;Min_cycle;Max_cycle;Signal;HPM_P1;HPM_P2
2022/05/22 00:04:45;;;;;;;2.92;1.22;;;;;;;;;;4351723;81;28442;-82
2022/05/22 00:10:46;;;;;;;3.72;1.55;;;;;;;;;;4435033;78;28543;-82
2022/05/22 00:16:48;;;;;;;3.20;1.42;;;;;;;;;;4344712;80;28507;-82
2022/05/22 00:22:49;;;;;;;5.22;1.72;;;;;;;;;;4420233;79;28469;-81
2022/05/22 00:28:51;;;;;;;4.50;1.70;;;;;;;;;;4408236;79;28472;-82
2022/05/22 00:34:58;;;;;;;2.70;1.37;;;;;;;;;;4418721;79;28493;-82
2022/05/22 00:41:04;;;;;;;4.35;1.40;;;;;;;;;;4424945;79;28491;-83
2022/05/22 00:47:05;;;;;;;1.40;1.02;;;;;;;;;;4436095;79;28513;-84
2022/05/22 00:53:06;;;;;;;3.25;1.20;;;;;;;;;;4507183;77;28448;-83
2022/05/22 00:59:09;;;;;;;3.37;1.12;;;;;;;;;;4493191;77;28511;-83
2022/05/22 01:05:15;;;;;;;2.85;1.20;;;;;;;;;;4413563;79;28446;-84
2022/05/22 01:11:24;;;;;;;4.33;1.25;;;;;;;;;;4432523;78;28467;-84
2022/05/22 01:17:25;;;;;;;3.00;1.30;;;;;;;;;;4463694;77;28522;-84
2022/05/22 01:23:32;;;;;;;3.12;1.37;;;;;;;;;;4438321;79;28495;-83
2022/05/22 01:29:41;;;;;;;2.17;1.17;;;;;;;;;;4350460;80;28518;-83
2022/05/22 01:35:47;;;;;;;2.55;1.15;;;;;;;;;;4404464;79;28466;-84
2022/05/22 01:41:50;;;;;;;4.30;1.10;;;;;;;;;;4330428;80;28514;-84
2022/05/22 01:47:51;;;;;;;2.90;1.30;;;;;;;;;;4292971;81;28489;-84
2022/05/22 01:53:53;;;;;;;2.25;1.27;;;;;;;;;;4363822;80;28469;-83
2022/05/22 02:00:01;;;;;;;1.82;1.17;;;;;;;;;;4451340;79;28484;-83
2022/05/22 02:06:08;;;;;;;3.95;1.50;;;;;;;;;;4319087;80;28519;-82
2022/05/22 02:12:09;;;;;;;4.80;1.40;;;;;;;;;;4445006;78;28546;-82
2022/05/22 02:18:10;;;;;;;2.60;1.62;;;;;;;;;;4471512;78;28479;-82
2022/05/22 02:24:13;;;;;;;2.50;1.60;;;;;;;;;;4529294;77;28516;-83
2022/05/22 02:30:15;;;;;;;2.70;1.55;;;;;;;;;;4527994;77;28518;-84
2022/05/22 02:36:17;;;;;;;5.30;1.62;;;;;;;;;;4524262;77;28518;-82
2022/05/22 02:42:20;;;;;;;5.05;1.57;;;;;;;;;;4531865;77;28482;-82
2022/05/22 02:48:21;;;;;;;4.83;1.85;;;;;;;;;;4530029;77;28497;-81
2022/05/22 02:54:30;;;;;;;3.25;1.92;;;;;;;;;;4510825;77;28578;-80
2022/05/22 03:00:39;;;;;;;3.85;2.00;;;;;;;;;;4537407;77;28529;-81
2022/05/22 03:06:47;;;;;;;3.92;1.98;;;;;;;;;;4524826;77;28549;-81
2022/05/22 03:12:48;;;;;;;3.40;2.27;;;;;;;;;;4528311;77;28968;-83
2022/05/22 03:18:50;;;;;;;6.10;2.45;;;;;;;;;;4500367;77;28537;-82
2022/05/22 03:24:59;;;;;;;4.03;1.70;;;;;;;;;;4525241;77;28541;-83
2022/05/22 03:31:01;;;;;;;7.12;2.90;;;;;;;;;;4522096;77;28514;-83
2022/05/22 03:37:11;;;;;;;3.33;2.00;;;;;;;;;;4509697;77;28527;-82
2022/05/22 03:43:13;;;;;;;5.17;2.40;;;;;;;;;;4495202;77;29135;-83
2022/05/22 03:49:21;;;;;;;4.35;2.12;;;;;;;;;;4489435;77;28536;-82
2022/05/22 03:55:28;;;;;;;4.30;2.55;;;;;;;;;;4508739;77;28519;-82
2022/05/22 04:01:31;;;;;;;4.70;2.35;;;;;;;;;;4529798;77;28518;-82
2022/05/22 04:07:42;;;;;;;5.78;2.67;;;;;;;;;;4519482;77;28524;-82
2022/05/22 04:13:44;;;;;;;5.72;2.22;;;;;;;;;;4520710;77;28526;-82
2022/05/22 04:19:44;;;;;;;5.10;2.90;;;;;;;;;;4500592;77;28498;-81
2022/05/22 04:25:57;;;;;;;8.33;2.77;;;;;;;;;;4490913;78;28546;-82
2022/05/22 04:31:58;;;;;;;6.67;3.22;;;;;;;;;;4497137;78;28513;-84
2022/05/22 04:38:02;;;;;;;9.10;3.95;;;;;;;;;;4487020;77;28487;-83
2022/05/22 04:44:05;;;;;;;6.95;3.90;;;;;;;;;;4491291;77;28495;-82
2022/05/22 04:50:12;;;;;;;7.95;4.22;;;;;;;;;;4495092;78;28487;-83
2022/05/22 04:56:21;;;;;;;6.03;3.50;;;;;;;;;;4443119;77;28604;-84
2022/05/22 05:02:26;;;;;;;9.95;3.60;;;;;;;;;;4444258;77;28546;-80
2022/05/22 05:08:32;;;;;;;7.30;4.10;;;;;;;;;;4484583;77;28495;-80
2022/05/22 05:14:35;;;;;;;6.75;3.60;;;;;;;;;;4506813;77;28566;-82
2022/05/22 05:20:37;;;;;;;6.90;4.05;;;;;;;;;;4486599;78;28581;-81
2022/05/22 05:26:38;;;;;;;7.83;4.05;;;;;;;;;;4504812;77;28529;-84
2022/05/22 05:32:41;;;;;;;6.90;3.60;;;;;;;;;;4510672;77;28520;-80
2022/05/22 05:38:44;;;;;;;6.08;3.10;;;;;;;;;;4517332;77;28594;-80
2022/05/22 05:44:46;;;;;;;6.92;2.60;;;;;;;;;;4504154;77;28486;-80
2022/05/22 05:50:48;;;;;;;8.28;3.40;;;;;;;;;;4513566;77;28589;-82
2022/05/22 05:57:10;;;;;;;7.22;2.75;;;;;;;;;;4484952;77;28480;-82
2022/05/22 06:03:15;;;;;;;5.67;2.83;;;;;;;;;;4461252;77;28550;-82
2022/05/22 06:09:17;;;;;;;6.92;2.37;;;;;;;;;;4520749;77;28502;-83
2022/05/22 06:15:38;;;;;;;6.22;2.55;;;;;;;;;;4526293;77;28562;-82
2022/05/22 06:21:39;;;;;;;6.28;2.98;;;;;;;;;;4505257;77;28641;-83
2022/05/22 06:27:48;;;;;;;4.72;2.12;;;;;;;;;;4470347;78;28586;-80
2022/05/22 06:34:03;;;;;;;6.30;2.87;;;;;;;;;;4484993;79;28519;-78
2022/05/22 06:40:27;;;;;;;3.75;1.80;;;;;;;;;;4482685;78;28539;-79
2022/05/22 06:46:45;;;;;;;2.58;1.60;;;;;;;;;;4482979;77;28522;-79
2022/05/22 06:53:00;;;;;;;5.37;1.70;;;;;;;;;;4450280;77;28558;-80
2022/05/22 06:59:39;;;;;;;9.23;1.70;;;;;;;;;;4437610;77;36721;-77
2022/05/22 07:13:01;;;;;;;4.78;1.50;;;;;;;;;;4448123;77;28511;-78
2022/05/22 07:19:38;;;;;;;4.83;1.80;;;;;;;;;;4469180;78;28573;-78
2022/05/22 07:25:42;;;;;;;3.80;1.80;;;;;;;;;;4466812;77;28582;-77
2022/05/22 07:31:48;;;;;;;5.65;1.55;;;;;;;;;;4486088;78;28611;-77
2022/05/22 07:38:13;;;;;;;4.40;1.20;;;;;;;;;;4454962;78;28568;-77
2022/05/22 07:44:40;;;;;;;3.05;1.20;;;;;;;;;;4400057;79;28604;-78
2022/05/22 07:50:45;;;;;;;3.60;1.20;;;;;;;;;;4441459;78;28525;-78
2022/05/22 07:57:00;;;;;;;4.20;1.30;;;;;;;;;;4444598;78;28523;-80
2022/05/22 08:03:10;;;;;;;3.40;1.20;;;;;;;;;;4481329;78;28562;-83
2022/05/22 08:09:11;;;;;;;3.60;1.30;;;;;;;;;;4490083;79;28533;-78
2022/05/22 08:15:15;;;;;;;2.52;0.98;;;;;;;;;;4485415;78;28594;-82
2022/05/22 08:21:16;;;;;;;5.20;1.10;;;;;;;;;;4445829;78;28569;-82
2022/05/22 08:27:19;;;;;;;4.45;1.67;;;;;;;;;;4338533;79;28557;-80
2022/05/22 08:33:20;;;;;;;3.05;1.00;;;;;;;;;;4407238;78;28543;-79
2022/05/22 08:39:20;;;;;;;3.85;1.07;;;;;;;;;;4420142;78;28564;-81
2022/05/22 08:45:23;;;;;;;5.42;1.30;;;;;;;;;;4425664;79;28525;-79
2022/05/22 08:51:26;;;;;;;4.78;1.30;;;;;;;;;;4420856;78;28450;-78
2022/05/22 09:03:53;;;;;;;3.45;1.15;;;;;;;;;;4452545;78;28534;-78
2022/05/22 09:10:02;;;;;;;3.98;0.90;;;;;;;;;;4483821;78;28509;-77
2022/05/22 09:16:11;;;;;;;3.17;0.93;;;;;;;;;;4425966;79;28493;-80
2022/05/22 09:22:14;;;;;;;3.35;0.90;;;;;;;;;;4404550;79;28526;-79
2022/05/22 09:28:33;;;;;;;2.22;0.78;;;;;;;;;;4379715;80;28480;-77
2022/05/22 09:34:45;;;;;;;2.37;0.93;;;;;;;;;;4367669;80;28522;-77
2022/05/22 09:40:48;;;;;;;4.83;0.90;;;;;;;;;;4326032;82;28498;-78
2022/05/22 09:46:56;;;;;;;1.85;0.70;;;;;;;;;;4369331;81;28461;-77
2022/05/22 09:53:05;;;;;;;1.65;1.07;;;;;;;;;;4364223;79;28547;-78
2022/05/22 09:59:08;;;;;;;2.55;0.93;;;;;;;;;;4399523;79;28458;-80
2022/05/22 10:05:28;;;;;;;3.37;0.90;;;;;;;;;;4394805;79;28498;-81
2022/05/22 10:11:36;;;;;;;2.95;1.25;;;;;;;;;;4396057;79;28518;-79
2022/05/22 10:17:45;;;;;;;3.90;1.12;;;;;;;;;;4402052;79;28583;-80
2022/05/22 10:24:06;;;;;;;3.67;1.10;;;;;;;;;;4409638;78;28473;-79
2022/05/22 10:30:12;;;;;;;2.98;1.42;;;;;;;;;;4507759;78;28908;-80
2022/05/22 10:36:15;;;;;;;4.12;1.22;;;;;;;;;;4498014;78;28975;-78
2022/05/22 10:48:50;;;;;;;3.15;1.20;;;;;;;;;;4520280;78;28532;-78
2022/05/22 10:54:52;;;;;;;3.02;0.80;;;;;;;;;;4484417;78;28599;-77
2022/05/22 11:00:55;;;;;;;2.27;1.00;;;;;;;;;;4505743;78;28549;-77
2022/05/22 11:06:58;;;;;;;4.83;1.25;;;;;;;;;;4467751;78;28527;-76
2022/05/22 11:13:01;;;;;;;2.77;0.90;;;;;;;;;;4480298;78;28523;-77
2022/05/22 11:19:12;;;;;;;2.12;0.80;;;;;;;;;;4473514;78;28495;-84
2022/05/22 11:25:18;;;;;;;5.05;0.93;;;;;;;;;;4466518;78;28507;-81
2022/05/22 11:31:28;;;;;;;3.92;0.85;;;;;;;;;;4441955;78;28504;-81
2022/05/22 11:37:28;;;;;;;4.28;0.88;;;;;;;;;;4429838;79;28513;-78
2022/05/22 11:43:35;;;;;;;3.40;0.95;;;;;;;;;;4465280;78;28463;-77
2022/05/22 11:49:55;;;;;;;1.25;0.72;;;;;;;;;;4450049;78;29122;-76
2022/05/22 11:56:00;;;;;;;2.90;1.07;;;;;;;;;;4428197;79;28517;-76
2022/05/22 12:02:10;;;;;;;1.72;0.72;;;;;;;;;;4494832;78;28564;-75
2022/05/22 12:08:20;;;;;;;1.85;0.80;;;;;;;;;;4465915;77;28535;-75
2022/05/22 12:14:26;;;;;;;1.25;0.70;;;;;;;;;;4465854;78;28516;-75
2022/05/22 12:20:29;;;;;;;3.72;0.90;;;;;;;;;;4436025;78;28534;-75
2022/05/22 12:26:31;;;;;;;2.60;0.80;;;;;;;;;;4426519;79;28555;-76
2022/05/22 12:32:34;;;;;;;2.60;0.85;;;;;;;;;;4460473;79;28514;-76
2022/05/22 12:38:36;;;;;;;0.82;0.60;;;;;;;;;;4483882;79;28550;-75
2022/05/22 12:44:38;;;;;;;2.77;0.62;;;;;;;;;;4435122;79;28518;-76
2022/05/22 12:50:40;;;;;;;1.42;1.10;;;;;;;;;;4484776;79;28456;-76
2022/05/22 12:56:42;;;;;;;2.37;0.78;;;;;;;;;;4505651;79;28561;-75
2022/05/22 13:02:45;;;;;;;4.12;0.60;;;;;;;;;;4444519;79;28549;-76
2022/05/22 13:08:50;;;;;;;1.42;0.53;;;;;;;;;;4446078;79;28477;-76
2022/05/22 13:14:54;;;;;;;2.25;0.75;;;;;;;;;;4473912;79;28541;-76
2022/05/22 13:20:57;;;;;;;2.08;0.60;;;;;;;;;;4424786;79;28555;-76
2022/05/22 13:27:00;;;;;;;1.77;0.60;;;;;;;;;;4432073;79;28514;-76
2022/05/22 13:33:05;;;;;;;2.58;0.72;;;;;;;;;;4474628;79;28509;-75
2022/05/22 13:39:08;;;;;;;2.27;0.70;;;;;;;;;;4425489;79;28559;-75
2022/05/22 13:45:28;;;;;;;1.47;0.50;;;;;;;;;;4442396;79;28535;-74
2022/05/22 13:58:11;;;;;;;1.75;0.60;;;;;;;;;;4469625;79;28611;-77
2022/05/22 14:04:12;;;;;;;1.30;0.40;;;;;;;;;;4453003;79;28548;-79
2022/05/22 14:10:14;;;;;;;1.95;0.70;;;;;;;;;;4506328;79;28525;-79
2022/05/22 14:16:21;;;;;;;2.15;0.68;;;;;;;;;;4453145;79;28525;-77
2022/05/22 14:22:22;;;;;;;1.67;0.70;;;;;;;;;;4451914;79;28573;-77
2022/05/22 14:28:31;;;;;;;1.07;0.57;;;;;;;;;;4456515;78;28501;-77
2022/05/22 14:34:32;;;;;;;1.60;0.80;;;;;;;;;;4446954;77;28518;-81
2022/05/22 14:40:34;;;;;;;2.83;0.90;;;;;;;;;;4456970;78;28543;-76
2022/05/22 14:46:43;;;;;;;2.58;0.72;;;;;;;;;;4422374;80;28478;-77
2022/05/22 14:52:46;;;;;;;1.42;0.70;;;;;;;;;;4438878;80;28547;-77
2022/05/22 14:58:58;;;;;;;2.25;0.68;;;;;;;;;;4467078;78;28516;-79
2022/05/22 15:05:00;;;;;;;1.17;0.70;;;;;;;;;;4458784;78;28487;-77
2022/05/22 15:11:18;;;;;;;1.37;0.72;;;;;;;;;;4440058;78;28545;-76
2022/05/22 15:17:30;;;;;;;3.42;0.82;;;;;;;;;;4499563;78;28504;-76
2022/05/22 15:29:51;;;;;;;2.55;0.75;;;;;;;;;;4431747;78;28487;-75
2022/05/22 15:43:02;;;;;;;1.43;0.70;;;;;;;;;;4431431;78;28792;-76
2022/05/22 15:55:31;;;;;;;1.65;0.80;;;;;;;;;;4431984;79;28440;-77
2022/05/22 16:01:37;;;;;;;2.25;0.88;;;;;;;;;;4488904;78;28534;-79
2022/05/22 16:07:40;;;;;;;3.47;1.07;;;;;;;;;;4441328;78;28499;-78
2022/05/22 16:13:42;;;;;;;1.85;0.70;;;;;;;;;;4468806;78;28551;-77
2022/05/22 16:19:49;;;;;;;2.77;0.80;;;;;;;;;;4484498;78;28519;-78
2022/05/22 16:25:52;;;;;;;2.87;1.00;;;;;;;;;;4449135;79;28580;-84
2022/05/22 16:32:02;;;;;;;3.60;1.02;;;;;;;;;;4436015;79;28544;-77
2022/05/22 16:38:03;;;;;;;2.02;1.00;;;;;;;;;;4452468;79;28556;-77
2022/05/22 16:44:05;;;;;;;2.65;0.82;;;;;;;;;;4467082;79;28943;-75
2022/05/22 16:56:34;;;;;;;3.40;1.02;;;;;;;;;;4409854;79;28533;-75
2022/05/22 17:02:35;;;;;;;0.93;0.70;;;;;;;;;;4449959;79;28487;-74
2022/05/22 17:08:41;;;;;;;2.62;0.60;;;;;;;;;;4488151;79;28535;-74
2022/05/22 17:14:44;;;;;;;0.90;0.50;;;;;;;;;;4452494;79;28527;-75
2022/05/22 17:20:48;;;;;;;1.92;0.90;;;;;;;;;;4428664;79;28517;-73
2022/05/22 17:26:55;;;;;;;2.25;0.70;;;;;;;;;;4430533;78;28517;-73
2022/05/22 17:32:57;;;;;;;2.12;0.65;;;;;;;;;;4446095;78;28571;-74
2022/05/22 17:39:07;;;;;;;1.32;0.50;;;;;;;;;;4429939;78;28528;-74
2022/05/22 17:45:14;;;;;;;1.77;0.70;;;;;;;;;;4452829;78;28505;-75
2022/05/22 17:51:19;;;;;;;2.65;0.70;;;;;;;;;;4418546;78;28521;-76
2022/05/22 17:57:20;;;;;;;3.37;1.00;;;;;;;;;;4438576;78;28629;-76
2022/05/22 18:03:26;;;;;;;2.60;0.90;;;;;;;;;;4427885;78;28533;-77
2022/05/22 18:09:28;;;;;;;1.80;1.10;;;;;;;;;;4439093;78;28509;-76
2022/05/22 18:21:50;;;;;;;4.22;1.00;;;;;;;;;;4442767;78;28516;-78
2022/05/22 18:27:53;;;;;;;2.12;1.00;;;;;;;;;;4486028;78;28519;-77
2022/05/22 18:33:54;;;;;;;2.30;0.82;;;;;;;;;;4449387;78;28617;-78
2022/05/22 18:40:02;;;;;;;3.87;1.35;;;;;;;;;;4449334;78;28542;-81
2022/05/22 18:46:09;;;;;;;2.35;0.90;;;;;;;;;;4430433;78;28546;-81
2022/05/22 18:52:16;;;;;;;4.87;1.07;;;;;;;;;;4430245;78;28522;-81
2022/05/22 18:58:19;;;;;;;2.15;0.90;;;;;;;;;;4446668;78;28523;-81
2022/05/22 19:04:22;;;;;;;3.00;1.07;;;;;;;;;;4448846;78;28555;-84
2022/05/22 19:10:25;;;;;;;2.92;0.95;;;;;;;;;;4470860;78;28559;-79
2022/05/22 19:16:28;;;;;;;1.95;0.95;;;;;;;;;;4446312;78;28550;-76
2022/05/22 19:22:29;;;;;;;2.25;1.10;;;;;;;;;;4435708;78;28521;-79
2022/05/22 19:28:34;;;;;;;2.75;1.00;;;;;;;;;;4443561;78;28515;-76
2022/05/22 19:34:35;;;;;;;3.00;1.20;;;;;;;;;;4481978;78;28513;-78
2022/05/22 19:40:39;;;;;;;3.80;1.27;;;;;;;;;;4428187;78;28540;-77
2022/05/22 19:46:47;;;;;;;3.35;1.40;;;;;;;;;;4457300;78;28521;-77
2022/05/22 19:52:55;;;;;;;2.70;1.15;;;;;;;;;;4448502;79;28506;-77
2022/05/22 19:59:04;;;;;;;2.67;1.17;;;;;;;;;;4412704;78;28510;-79
2022/05/22 20:05:12;;;;;;;2.85;1.12;;;;;;;;;;4429219;78;28490;-78
2022/05/22 20:11:15;;;;;;;2.00;1.27;;;;;;;;;;4407833;78;28500;-77
2022/05/22 20:17:18;;;;;;;2.33;1.00;;;;;;;;;;4432760;78;28557;-79
2022/05/22 20:23:19;;;;;;;2.10;0.90;;;;;;;;;;4446753;78;28533;-77
2022/05/22 20:29:24;;;;;;;2.30;1.00;;;;;;;;;;4457890;78;28560;-77
2022/05/22 20:35:25;;;;;;;2.83;1.20;;;;;;;;;;4418065;78;28505;-78
2022/05/22 20:41:28;;;;;;;2.20;1.10;;;;;;;;;;4468668;77;28530;-78
2022/05/22 20:47:29;;;;;;;1.77;1.17;;;;;;;;;;4465326;78;28464;-78
2022/05/22 20:53:30;;;;;;;3.15;1.40;;;;;;;;;;4431308;79;28529;-78
2022/05/22 20:59:36;;;;;;;2.90;1.15;;;;;;;;;;4430874;79;28499;-78
2022/05/22 21:05:39;;;;;;;2.77;1.27;;;;;;;;;;4429892;79;28555;-78
2022/05/22 21:18:28;;;;;;;2.60;1.32;;;;;;;;;;4429917;79;28509;-78
2022/05/22 21:30:48;;;;;;;4.05;1.30;;;;;;;;;;4430493;79;28505;-78
2022/05/22 21:36:49;;;;;;;3.55;1.55;;;;;;;;;;4431153;79;28579;-77
2022/05/22 21:42:51;;;;;;;1.77;1.10;;;;;;;;;;4429071;79;28489;-77
2022/05/22 21:48:52;;;;;;;1.40;1.05;;;;;;;;;;4431462;79;28567;-77
2022/05/22 21:54:53;;;;;;;2.02;1.12;;;;;;;;;;4431004;79;28509;-77
2022/05/22 22:00:59;;;;;;;2.42;1.47;;;;;;;;;;4431661;79;28450;-77
2022/05/22 22:07:01;;;;;;;2.17;1.30;;;;;;;;;;4433011;79;28502;-77
2022/05/22 22:13:02;;;;;;;2.92;0.90;;;;;;;;;;4454260;78;28515;-77
2022/05/22 22:19:03;;;;;;;3.02;0.98;;;;;;;;;;4469479;78;29047;-77
2022/05/22 22:25:04;;;;;;;1.15;0.90;;;;;;;;;;4480176;78;28525;-77
2022/05/22 22:31:05;;;;;;;2.42;1.20;;;;;;;;;;4451861;79;28547;-77
2022/05/22 22:37:06;;;;;;;3.17;1.32;;;;;;;;;;4474564;79;28553;-77
2022/05/22 22:43:08;;;;;;;2.87;1.42;;;;;;;;;;4492370;79;28437;-77
2022/05/22 22:49:09;;;;;;;2.08;1.00;;;;;;;;;;4476554;79;28522;-77
2022/05/22 23:01:29;;;;;;;2.72;1.00;;;;;;;;;;4472650;79;28524;-77
2022/05/22 23:07:30;;;;;;;3.27;1.32;;;;;;;;;;4446890;79;28535;-77
2022/05/22 23:13:31;;;;;;;2.55;1.52;;;;;;;;;;4463915;79;28516;-78
2022/05/22 23:19:31;;;;;;;2.40;1.25;;;;;;;;;;4501070;79;28547;-78
2022/05/22 23:25:33;;;;;;;2.72;1.50;;;;;;;;;;4478391;78;28554;-77
2022/05/22 23:31:36;;;;;;;2.72;1.40;;;;;;;;;;4455349;77;28564;-77
2022/05/22 23:37:38;;;;;;;3.70;1.40;;;;;;;;;;4475173;78;28574;-77
2022/05/22 23:43:39;;;;;;;3.00;1.35;;;;;;;;;;4460256;78;28529;-77
2022/05/22 23:49:40;;;;;;;2.40;1.55;;;;;;;;;;4463096;78;28499;-77
2022/05/22 23:55:40;;;;;;;3.33;1.72;;;;;;;;;;4481156;78;28512;-77
